Time;durP1;ratioP1;P1;durP2;ratioP2;P2;SDS_P1;SDS_P2;PMS_P1;PMS_P2;Temp;Humidity;BMP_temperature;BMP_pressure;BME280_temperature;BME280_humidity;BME280_pressure;Samples;Min_cycle;Max_cycle;Signal;HPM_P1;HPM_P2
2023/05/19 00:00:43;;;;;;;19.83;5.67;;;19.40;52.70;;;;;;6215856;23;20852;-85
2023/05/19 00:03:13;;;;;;;18.43;5.50;;;19.40;52.70;;;;;;6212755;23;20180;-85
2023/05/19 00:05:44;;;;;;;26.83;6.07;;;19.40;52.70;;;;;;6212661;23;20208;-86
2023/05/19 00:08:15;;;;;;;18.80;5.43;;;19.40;52.70;;;;;;6212203;23;20171;-86
2023/05/19 00:10:45;;;;;;;22.03;5.47;;;19.40;52.70;;;;;;6212176;23;20168;-85
2023/05/19 00:13:12;;;;;;;22.83;5.77;;;19.40;52.70;;;;;;6211651;23;20207;-85
2023/05/19 00:15:40;;;;;;;31.47;6.73;;;19.30;52.70;;;;;;6211000;23;20204;-85
2023/05/19 00:18:07;;;;;;;24.03;5.67;;;19.30;52.70;;;;;;6211034;23;20239;-85
2023/05/19 00:20:36;;;;;;;31.43;6.70;;;19.30;52.70;;;;;;6210249;23;20192;-85
2023/05/19 00:23:03;;;;;;;19.63;5.40;;;19.30;52.70;;;;;;6210849;23;20176;-85
2023/05/19 00:25:30;;;;;;;33.60;6.53;;;19.30;52.70;;;;;;6210981;23;20234;-85
2023/05/19 00:27:58;;;;;;;36.87;6.80;;;19.30;52.70;;;;;;6210398;23;20236;-85
2023/05/19 00:30:25;;;;;;;26.90;5.90;;;19.30;52.70;;;;;;6211490;23;20168;-86
2023/05/19 00:32:54;;;;;;;28.47;6.37;;;19.30;52.70;;;;;;6213520;23;20176;-85
2023/05/19 00:35:22;;;;;;;28.27;6.53;;;19.20;52.70;;;;;;6214635;23;20167;-84
2023/05/19 00:37:51;;;;;;;39.83;7.27;;;19.20;52.70;;;;;;6210557;23;20192;-86
2023/05/19 00:40:18;;;;;;;29.47;6.23;;;19.20;52.70;;;;;;6209517;23;20573;-85
2023/05/19 00:42:45;;;;;;;21.80;5.90;;;19.20;52.70;;;;;;6211052;23;20217;-85
2023/05/19 00:45:12;;;;;;;23.60;6.47;;;19.20;52.70;;;;;;6210922;23;20207;-85
2023/05/19 00:47:42;;;;;;;24.83;6.37;;;19.10;52.60;;;;;;6213822;23;20559;-85
2023/05/19 00:50:11;;;;;;;43.57;7.53;;;19.10;52.60;;;;;;6213405;23;20605;-85
2023/05/19 00:52:38;;;;;;;23.53;6.37;;;19.10;52.60;;;;;;6214179;23;20219;-85
2023/05/19 00:55:07;;;;;;;26.27;6.53;;;19.10;52.60;;;;;;6210426;23;20268;-85
2023/05/19 00:57:35;;;;;;;44.87;7.60;;;19.10;52.60;;;;;;6211659;23;20175;-85
2023/05/19 01:00:03;;;;;;;29.13;6.23;;;19.10;52.60;;;;;;6210703;23;20271;-85
2023/05/19 01:02:31;;;;;;;45.93;7.60;;;19.00;52.60;;;;;;6214163;23;20171;-85
2023/05/19 01:04:59;;;;;;;30.90;6.37;;;19.00;52.60;;;;;;6211605;23;20222;-87
2023/05/19 01:07:26;;;;;;;21.33;5.90;;;19.00;52.60;;;;;;6211106;23;20211;-86
2023/05/19 01:09:53;;;;;;;34.20;7.50;;;19.00;52.60;;;;;;6210033;23;20203;-85
2023/05/19 01:12:22;;;;;;;30.23;6.13;;;19.00;52.60;;;;;;6210119;23;20192;-85
2023/05/19 01:14:49;;;;;;;35.80;6.97;;;18.90;52.50;;;;;;6210077;23;20196;-85
2023/05/19 01:17:25;;;;;;;28.07;6.40;;;18.90;52.50;;;;;;6209305;23;20211;-86
2023/05/19 01:20:00;;;;;;;31.87;6.77;;;18.90;52.50;;;;;;6210330;23;20576;-86
2023/05/19 01:23:01;;;;;;;24.40;6.33;;;18.90;52.50;;;;;;6209566;23;20218;-85
2023/05/19 01:26:11;;;;;;;23.33;6.07;;;18.90;52.50;;;;;;6210140;23;20544;-87
2023/05/19 01:29:16;;;;;;;37.03;7.27;;;18.90;52.50;;;;;;6191999;23;20259;-86
2023/05/19 01:31:47;;;;;;;26.57;6.27;;;18.80;52.40;;;;;;6186247;23;20933;-85
2023/05/19 01:34:16;;;;;;;23.47;6.13;;;18.80;52.50;;;;;;6209915;23;20251;-85
2023/05/19 01:36:47;;;;;;;30.40;6.53;;;18.80;52.50;;;;;;6210202;23;20198;-85
2023/05/19 01:39:15;;;;;;;23.60;5.70;;;18.70;52.40;;;;;;6209181;23;20188;-85
2023/05/19 01:41:43;;;;;;;25.90;6.43;;;18.70;52.40;;;;;;6210801;23;20172;-85
2023/05/19 01:44:11;;;;;;;29.30;6.50;;;18.70;52.30;;;;;;6210175;23;20535;-85
2023/05/19 01:46:39;;;;;;;22.27;6.30;;;18.70;52.40;;;;;;6209808;23;20184;-85
2023/05/19 01:49:09;;;;;;;25.17;6.10;;;18.70;52.40;;;;;;6210567;23;20176;-85
2023/05/19 01:51:36;;;;;;;25.17;6.30;;;18.70;52.30;;;;;;6211030;23;20227;-85
2023/05/19 01:54:04;;;;;;;48.83;8.23;;;18.70;52.40;;;;;;6210097;23;20535;-85
2023/05/19 01:56:40;;;;;;;28.57;6.37;;;18.60;52.30;;;;;;6210788;23;20533;-85
2023/05/19 01:59:27;;;;;;;26.80;6.33;;;18.60;52.30;;;;;;6209841;23;20628;-85
2023/05/19 02:01:57;;;;;;;31.17;7.00;;;18.60;52.30;;;;;;6209703;23;20179;-85
2023/05/19 02:04:37;;;;;;;26.07;6.43;;;18.60;52.30;;;;;;6209984;23;20169;-85
2023/05/19 02:07:14;;;;;;;38.53;7.37;;;18.60;52.30;;;;;;6209611;23;20242;-86
2023/05/19 02:09:55;;;;;;;21.50;6.03;;;18.50;52.20;;;;;;6209647;23;20164;-85
2023/05/19 02:12:28;;;;;;;26.27;6.13;;;18.50;52.20;;;;;;6211266;23;20200;-85
2023/05/19 02:15:03;;;;;;;35.17;6.97;;;18.50;52.20;;;;;;6210110;23;20169;-85
2023/05/19 02:17:32;;;;;;;32.47;6.80;;;18.50;52.20;;;;;;6210647;23;20490;-86
2023/05/19 02:20:03;;;;;;;30.63;6.80;;;18.50;52.20;;;;;;6209312;23;20192;-85
2023/05/19 02:22:30;;;;;;;26.80;6.37;;;18.40;52.20;;;;;;6210989;23;20183;-85
2023/05/19 02:24:57;;;;;;;19.27;5.67;;;18.40;52.20;;;;;;6212233;23;20503;-85
2023/05/19 02:27:26;;;;;;;25.43;6.10;;;18.40;52.20;;;;;;6210319;23;20607;-84
2023/05/19 02:29:53;;;;;;;28.73;6.73;;;18.40;52.20;;;;;;6209398;23;20696;-85
2023/05/19 02:32:21;;;;;;;32.90;6.77;;;18.40;52.20;;;;;;6209394;23;20918;-84
2023/05/19 02:34:48;;;;;;;25.20;6.43;;;18.40;52.20;;;;;;6209127;23;20195;-85
2023/05/19 02:37:16;;;;;;;31.17;7.03;;;18.30;52.20;;;;;;6209751;23;20636;-87
2023/05/19 02:39:45;;;;;;;24.10;6.20;;;18.30;52.20;;;;;;6211649;23;20223;-85
2023/05/19 02:42:13;;;;;;;20.37;6.20;;;18.40;52.20;;;;;;6212272;23;20202;-88
2023/05/19 02:44:41;;;;;;;35.90;7.13;;;18.30;52.20;;;;;;6211298;23;20175;-85
2023/05/19 02:47:08;;;;;;;20.50;6.07;;;18.30;52.20;;;;;;6210420;23;20226;-85
2023/05/19 02:49:35;;;;;;;23.70;5.83;;;18.30;52.20;;;;;;6211578;23;20254;-85
2023/05/19 02:52:02;;;;;;;30.37;6.77;;;18.30;52.20;;;;;;6212426;23;20203;-86
2023/05/19 02:54:31;;;;;;;29.10;6.93;;;18.30;52.20;;;;;;6210609;23;20655;-85
2023/05/19 02:56:58;;;;;;;28.83;6.87;;;18.10;52.10;;;;;;6212166;23;20258;-91
2023/05/19 02:59:25;;;;;;;45.83;7.60;;;18.20;52.20;;;;;;6225963;23;20176;-86
2023/05/19 03:01:55;;;;;;;37.13;7.67;;;18.20;52.20;;;;;;6235303;23;20172;-91
2023/05/19 03:04:23;;;;;;;32.20;6.67;;;18.20;52.20;;;;;;6220640;23;20171;-89
2023/05/19 03:06:50;;;;;;;19.53;5.93;;;18.20;52.20;;;;;;6220581;23;20202;-92
2023/05/19 03:09:17;;;;;;;32.23;7.50;;;18.10;52.20;;;;;;6214103;23;20164;-85
2023/05/19 03:11:46;;;;;;;27.63;6.20;;;18.10;52.20;;;;;;6211681;23;20621;-85
2023/05/19 03:14:13;;;;;;;48.00;8.37;;;18.10;52.10;;;;;;6211415;23;20237;-85
2023/05/19 03:16:41;;;;;;;27.60;6.33;;;18.10;52.20;;;;;;6211151;23;20171;-85
2023/05/19 03:19:09;;;;;;;19.93;6.40;;;18.10;52.10;;;;;;6211294;23;20164;-96
2023/05/19 03:21:36;;;;;;;25.33;6.87;;;18.10;52.20;;;;;;6212377;23;20188;-85
2023/05/19 03:24:03;;;;;;;26.37;6.73;;;18.00;52.10;;;;;;6221656;23;20168;-85
2023/05/19 03:26:30;;;;;;;32.07;7.03;;;18.00;52.10;;;;;;6213869;23;20169;-85
2023/05/19 03:28:58;;;;;;;24.23;6.70;;;18.00;52.10;;;;;;6210920;23;20211;-85
2023/05/19 03:31:26;;;;;;;28.60;6.77;;;18.00;52.10;;;;;;6210954;23;20199;-86
2023/05/19 03:33:53;;;;;;;32.20;7.27;;;18.00;52.20;;;;;;6210376;23;20628;-86
2023/05/19 03:36:22;;;;;;;29.03;7.03;;;18.00;52.20;;;;;;6211229;23;20251;-85
2023/05/19 03:38:49;;;;;;;28.60;7.20;;;18.00;52.20;;;;;;6210861;23;20204;-86
2023/05/19 03:41:15;;;;;;;31.03;7.00;;;18.00;52.20;;;;;;6210534;23;20759;-85
2023/05/19 03:43:42;;;;;;;29.43;7.20;;;17.90;52.10;;;;;;6211187;23;20254;-85
2023/05/19 03:46:11;;;;;;;31.67;7.57;;;17.90;52.10;;;;;;6210440;23;20196;-86
2023/05/19 03:48:37;;;;;;;24.17;6.67;;;17.90;52.10;;;;;;6210692;23;20557;-85
2023/05/19 03:51:05;;;;;;;28.63;7.50;;;17.90;52.10;;;;;;6210155;23;20242;-85
2023/05/19 03:53:32;;;;;;;28.10;7.07;;;17.90;52.20;;;;;;6211299;23;20221;-85
2023/05/19 03:55:59;;;;;;;29.30;7.67;;;17.90;52.10;;;;;;6214802;23;20210;-86
2023/05/19 03:58:28;;;;;;;26.37;6.60;;;17.90;52.10;;;;;;6210916;23;20196;-88
2023/05/19 04:00:55;;;;;;;34.13;7.50;;;17.80;52.10;;;;;;6210416;23;20300;-87
2023/05/19 04:03:24;;;;;;;27.93;7.40;;;17.80;52.10;;;;;;6212227;23;20203;-87
2023/05/19 04:05:51;;;;;;;41.87;8.60;;;17.80;52.10;;;;;;6212293;23;20243;-85
2023/05/19 04:08:18;;;;;;;27.20;7.40;;;17.80;52.10;;;;;;6210666;23;20230;-88
2023/05/19 04:10:45;;;;;;;26.53;7.43;;;17.80;52.10;;;;;;6211037;23;20576;-85
2023/05/19 04:13:12;;;;;;;22.60;7.00;;;17.80;52.10;;;;;;6212761;23;20269;-90
2023/05/19 04:15:42;;;;;;;21.50;7.10;;;17.80;52.10;;;;;;6216474;23;20223;-86
2023/05/19 04:18:09;;;;;;;34.30;8.37;;;17.70;52.00;;;;;;6212323;23;20209;-85
2023/05/19 04:20:37;;;;;;;23.93;6.90;;;17.70;52.00;;;;;;6210890;23;20192;-87
2023/05/19 04:23:04;;;;;;;34.43;7.60;;;17.70;52.00;;;;;;6210850;23;20214;-88
2023/05/19 04:25:32;;;;;;;42.77;8.10;;;17.70;52.00;;;;;;6211195;23;20667;-92
2023/05/19 04:27:59;;;;;;;28.97;7.63;;;17.70;52.10;;;;;;6216728;23;20172;-88
2023/05/19 04:30:27;;;;;;;29.37;7.37;;;17.70;52.00;;;;;;6216840;23;20168;-89
2023/05/19 04:32:56;;;;;;;32.83;7.47;;;17.70;52.10;;;;;;6211470;23;20206;-94
2023/05/19 04:35:23;;;;;;;28.77;6.97;;;17.70;52.00;;;;;;6210881;23;20200;-91
2023/05/19 04:37:53;;;;;;;28.47;7.57;;;17.70;52.00;;;;;;6210827;23;20191;-89
2023/05/19 04:40:22;;;;;;;30.27;7.30;;;17.70;52.00;;;;;;6211381;23;20230;-91
2023/05/19 04:42:51;;;;;;;21.30;6.97;;;17.60;52.00;;;;;;6213852;23;20171;-87
2023/05/19 04:45:18;;;;;;;23.40;7.03;;;17.60;52.00;;;;;;6217910;23;20172;-89
2023/05/19 04:47:46;;;;;;;45.00;8.47;;;17.60;52.00;;;;;;6210752;23;20180;-87
2023/05/19 04:50:13;;;;;;;28.53;7.10;;;17.60;52.00;;;;;;6211700;23;20168;-89
2023/05/19 04:52:41;;;;;;;32.37;7.10;;;17.60;52.00;;;;;;6212150;23;20223;-89
2023/05/19 04:55:11;;;;;;;27.67;7.20;;;17.60;52.00;;;;;;6213557;23;20187;-86
2023/05/19 04:57:38;;;;;;;26.00;7.17;;;17.50;52.00;;;;;;6214605;23;20168;-85
2023/05/19 05:00:11;;;;;;;31.83;7.60;;;17.60;52.00;;;;;;6212426;23;20164;-87
2023/05/19 05:02:37;;;;;;;32.30;7.50;;;17.60;52.00;;;;;;6212130;23;20167;-87
2023/05/19 05:05:05;;;;;;;35.63;7.87;;;17.60;52.10;;;;;;6213837;23;20172;-87
2023/05/19 05:07:32;;;;;;;33.30;7.27;;;17.60;52.10;;;;;;6214036;23;20197;-86
2023/05/19 05:09:59;;;;;;;29.10;7.00;;;17.50;52.00;;;;;;6211610;23;20226;-86
2023/05/19 05:12:28;;;;;;;27.27;6.67;;;17.50;52.00;;;;;;6209001;23;20194;-87
2023/05/19 05:14:56;;;;;;;29.83;7.33;;;17.50;52.00;;;;;;6210039;23;20199;-87
2023/05/19 05:17:24;;;;;;;33.90;7.10;;;17.50;52.00;;;;;;6210646;23;20263;-89
2023/05/19 05:19:51;;;;;;;32.63;7.17;;;17.50;52.00;;;;;;6210761;23;20597;-89
2023/05/19 05:22:19;;;;;;;57.53;9.53;;;17.50;52.60;;;;;;6210053;23;20234;-88
2023/05/19 05:24:47;;;;;;;29.67;7.07;;;17.50;52.10;;;;;;6209404;23;20209;-86
2023/05/19 05:27:14;;;;;;;30.07;7.10;;;17.50;52.10;;;;;;6210300;23;20207;-88
2023/05/19 05:29:42;;;;;;;23.60;6.97;;;17.50;52.10;;;;;;6212923;23;20178;-94
2023/05/19 05:32:09;;;;;;;21.77;6.40;;;17.50;52.10;;;;;;6211684;23;20682;-87
2023/05/19 05:34:39;;;;;;;26.47;6.17;;;17.50;52.20;;;;;;6211733;23;20650;-87
2023/05/19 05:37:06;;;;;;;24.43;6.80;;;17.50;52.20;;;;;;6210661;23;20180;-87
2023/05/19 05:39:34;;;;;;;38.30;7.97;;;17.50;52.20;;;;;;6209372;23;21011;-87
2023/05/19 05:42:01;;;;;;;33.03;7.13;;;17.40;52.80;;;;;;6210813;23;20203;-87
2023/05/19 05:44:30;;;;;;;34.00;7.53;;;17.50;52.30;;;;;;6209807;23;20168;-92
2023/05/19 05:46:59;;;;;;;20.77;6.03;;;17.50;52.30;;;;;;6211109;23;20234;-90
2023/05/19 05:49:27;;;;;;;26.97;6.93;;;17.40;52.20;;;;;;6213842;23;20187;-87
2023/05/19 05:51:54;;;;;;;33.80;7.40;;;17.40;52.30;;;;;;6210853;23;20231;-90
2023/05/19 05:54:23;;;;;;;22.87;6.57;;;17.50;52.30;;;;;;6210986;23;20207;-87
2023/05/19 05:56:51;;;;;;;34.43;7.37;;;17.40;52.30;;;;;;6211850;23;20692;-87
2023/05/19 05:59:19;;;;;;;26.87;6.80;;;17.40;52.30;;;;;;6210296;23;20199;-87
2023/05/19 06:01:46;;;;;;;26.67;6.77;;;17.40;52.30;;;;;;6209706;23;20275;-87
2023/05/19 06:04:14;;;;;;;43.13;8.13;;;17.40;52.40;;;;;;6209277;23;20195;-93
2023/05/19 06:06:41;;;;;;;30.23;7.67;;;17.40;52.40;;;;;;6210135;23;20207;-87
2023/05/19 06:09:08;;;;;;;30.10;7.30;;;17.40;52.40;;;;;;6210131;23;20171;-94
2023/05/19 06:11:35;;;;;;;31.83;7.53;;;17.40;52.50;;;;;;6210844;23;20208;-88
2023/05/19 06:14:03;;;;;;;41.80;8.57;;;17.50;52.60;;;;;;6211621;23;20174;-88
2023/05/19 06:16:30;;;;;;;33.23;7.60;;;17.40;52.50;;;;;;6212154;23;20168;-87
2023/05/19 06:18:57;;;;;;;32.17;7.33;;;17.40;52.50;;;;;;6211056;23;20258;-87
2023/05/19 06:21:25;;;;;;;60.20;9.83;;;17.40;52.60;;;;;;6210563;23;20492;-87
2023/05/19 06:23:53;;;;;;;31.77;7.23;;;17.50;52.60;;;;;;6211631;23;20207;-87
2023/05/19 06:26:20;;;;;;;37.33;7.67;;;17.50;52.70;;;;;;6211988;23;20520;-87
2023/05/19 06:28:47;;;;;;;31.47;6.87;;;17.50;52.70;;;;;;6212713;23;20179;-87
2023/05/19 06:31:14;;;;;;;31.13;7.10;;;17.50;52.70;;;;;;6220980;23;20171;-88
2023/05/19 06:33:41;;;;;;;32.00;7.13;;;17.50;52.70;;;;;;6220106;23;20199;-92
2023/05/19 06:36:08;;;;;;;33.50;7.73;;;17.50;52.70;;;;;;6215306;23;20171;-87
2023/05/19 06:38:37;;;;;;;40.97;7.90;;;17.50;52.70;;;;;;6213686;23;20174;-88
2023/05/19 06:41:04;;;;;;;43.17;8.07;;;17.50;52.70;;;;;;6212515;23;20191;-90
2023/05/19 06:43:32;;;;;;;40.67;7.80;;;17.50;52.70;;;;;;6211039;23;20715;-88
2023/05/19 06:45:59;;;;;;;36.03;7.80;;;17.50;52.80;;;;;;6211297;23;20247;-88
2023/05/19 06:48:25;;;;;;;34.77;7.13;;;17.60;52.80;;;;;;6212258;23;20584;-87
2023/05/19 06:50:53;;;;;;;40.77;7.97;;;17.60;52.80;;;;;;6211602;23;20207;-88
2023/05/19 06:53:20;;;;;;;41.37;7.97;;;17.60;52.80;;;;;;6211429;23;20275;-87
2023/05/19 06:55:50;;;;;;;42.90;8.10;;;17.60;52.80;;;;;;6210890;23;20184;-88
2023/05/19 06:58:17;;;;;;;31.30;7.10;;;17.60;53.40;;;;;;6211161;23;20216;-89
2023/05/19 07:00:44;;;;;;;39.73;7.80;;;17.60;52.80;;;;;;6210409;23;20302;-88
2023/05/19 07:03:11;;;;;;;34.23;7.07;;;17.70;52.90;;;;;;6210877;23;20255;-91
2023/05/19 07:05:38;;;;;;;44.70;8.43;;;17.70;52.90;;;;;;6210960;23;20637;-89
2023/05/19 07:08:07;;;;;;;38.50;7.47;;;17.70;52.90;;;;;;6211110;23;20195;-90
2023/05/19 07:10:34;;;;;;;46.33;8.47;;;17.70;52.90;;;;;;6209850;23;20229;-88
2023/05/19 07:13:03;;;;;;;37.37;7.40;;;17.70;52.90;;;;;;6211215;23;20239;-90
2023/05/19 07:15:30;;;;;;;41.20;7.47;;;17.80;53.00;;;;;;6210971;23;20166;-93
2023/05/19 07:17:58;;;;;;;39.23;7.70;;;17.70;52.90;;;;;;6211036;23;20175;-91
2023/05/19 07:20:25;;;;;;;38.53;7.33;;;17.70;52.90;;;;;;6210406;23;20692;-87
2023/05/19 07:22:52;;;;;;;64.90;9.57;;;17.70;52.90;;;;;;6209967;23;20188;-91
2023/05/19 07:25:19;;;;;;;41.73;8.07;;;17.80;53.00;;;;;;6210200;23;20259;-91
2023/05/19 07:27:46;;;;;;;38.70;7.67;;;17.80;53.00;;;;;;6211423;23;20179;-88
2023/05/19 07:30:15;;;;;;;60.70;9.53;;;17.80;53.00;;;;;;6210473;23;20666;-88
2023/05/19 07:32:42;;;;;;;37.37;7.40;;;17.80;53.00;;;;;;6209896;23;20259;-92
2023/05/19 07:35:09;;;;;;;41.40;8.17;;;17.80;53.00;;;;;;6210382;23;20171;-88
2023/05/19 07:37:37;;;;;;;38.27;7.13;;;17.90;53.00;;;;;;6210183;23;20174;-88
2023/05/19 07:40:06;;;;;;;35.67;7.43;;;17.90;53.10;;;;;;6210899;23;20254;-93
2023/05/19 07:42:33;;;;;;;35.13;7.00;;;17.90;53.00;;;;;;6210640;23;20195;-89
2023/05/19 07:45:02;;;;;;;46.57;7.77;;;17.90;53.00;;;;;;6210535;23;20169;-89
2023/05/19 07:47:30;;;;;;;36.83;7.50;;;17.90;53.00;;;;;;6210255;23;20183;-90
2023/05/19 07:49:57;;;;;;;42.67;8.03;;;17.90;53.00;;;;;;6209752;23;20199;-91
2023/05/19 07:52:27;;;;;;;31.70;6.87;;;18.00;53.10;;;;;;6210187;23;20214;-88
2023/05/19 07:54:54;;;;;;;31.80;7.00;;;18.00;53.10;;;;;;6212080;23;20253;-90
2023/05/19 07:57:22;;;;;;;37.47;8.63;;;18.00;53.30;;;;;;6211049;23;20262;-89
2023/05/19 07:59:48;;;;;;;31.73;7.60;;;18.00;53.40;;;;;;6211118;23;20271;-88
2023/05/19 08:02:15;;;;;;;28.50;7.53;;;18.00;53.40;;;;;;6209351;23;20287;-89
2023/05/19 08:04:44;;;;;;;28.23;7.10;;;18.00;53.90;;;;;;6209690;23;20676;-89
2023/05/19 08:07:11;;;;;;;28.73;7.23;;;18.10;53.40;;;;;;6209723;23;20164;-86
2023/05/19 08:09:38;;;;;;;26.73;7.33;;;18.10;53.40;;;;;;6209281;23;20195;-87
2023/05/19 08:12:08;;;;;;;54.10;10.43;;;18.10;53.30;;;;;;6209738;23;20248;-92
2023/05/19 08:14:36;;;;;;;47.50;9.60;;;18.10;53.60;;;;;;6209608;23;20584;-88
2023/05/19 08:17:03;;;;;;;56.07;10.77;;;18.10;53.80;;;;;;6209427;23;20164;-86
2023/05/19 08:19:30;;;;;;;56.20;9.97;;;18.20;54.00;;;;;;6208978;23;20192;-85
2023/05/19 08:22:00;;;;;;;26.90;8.33;;;18.20;54.00;;;;;;6210367;23;20197;-84
2023/05/19 08:24:28;;;;;;;30.33;8.50;;;18.20;54.00;;;;;;6209815;23;20287;-84
2023/05/19 08:26:55;;;;;;;36.50;8.53;;;18.30;54.00;;;;;;6209952;23;20180;-85
2023/05/19 08:29:22;;;;;;;27.97;7.20;;;18.30;53.90;;;;;;6209660;23;20196;-88
2023/05/19 08:31:51;;;;;;;50.70;9.43;;;18.30;53.90;;;;;;6209282;23;20254;-90
2023/05/19 08:34:18;;;;;;;34.77;7.87;;;18.40;54.00;;;;;;6210673;23;20222;-85
2023/05/19 08:36:46;;;;;;;37.13;7.97;;;18.40;54.00;;;;;;6210478;23;20559;-87
2023/05/19 08:39:16;;;;;;;35.03;8.33;;;18.40;53.90;;;;;;6209172;23;20172;-86
2023/05/19 08:41:43;;;;;;;29.70;7.87;;;18.50;54.00;;;;;;6209508;23;20192;-91
2023/05/19 08:44:10;;;;;;;26.47;7.00;;;18.60;54.00;;;;;;6208373;23;20180;-85
2023/05/19 08:46:37;;;;;;;23.83;7.03;;;18.60;54.00;;;;;;6209038;23;20184;-86
2023/05/19 08:49:15;;;;;;;24.90;7.10;;;18.60;54.00;;;;;;6210073;23;20271;-86
2023/05/19 08:51:50;;;;;;;31.67;6.80;;;18.70;54.00;;;;;;6209410;23;20231;-85
2023/05/19 08:54:19;;;;;;;26.40;6.67;;;18.70;54.00;;;;;;6209489;23;20263;-87
2023/05/19 08:56:47;;;;;;;30.63;7.00;;;18.70;54.00;;;;;;6208791;23;20207;-89
2023/05/19 08:59:14;;;;;;;45.00;8.23;;;18.80;54.00;;;;;;6209269;23;20263;-85
2023/05/19 09:01:44;;;;;;;28.23;7.43;;;18.80;54.00;;;;;;6209325;23;20200;-85
2023/05/19 09:04:11;;;;;;;24.97;6.70;;;18.80;54.00;;;;;;6209618;23;20679;-85
2023/05/19 09:06:41;;;;;;;27.77;6.43;;;18.90;54.00;;;;;;6209686;23;20247;-84
2023/05/19 09:09:08;;;;;;;25.60;6.70;;;18.90;54.00;;;;;;6209700;23;20239;-85
2023/05/19 09:11:37;;;;;;;24.87;6.40;;;18.90;54.00;;;;;;6209393;23;20274;-88
2023/05/19 09:14:04;;;;;;;28.37;7.03;;;19.00;54.10;;;;;;6209334;23;20171;-85
2023/05/19 09:16:32;;;;;;;26.77;7.07;;;19.00;54.10;;;;;;6209141;23;20664;-86
2023/05/19 09:18:59;;;;;;;33.30;7.40;;;19.00;54.10;;;;;;6208421;23;20696;-85
2023/05/19 09:21:30;;;;;;;34.37;7.20;;;19.00;54.10;;;;;;6209581;23;20172;-85
2023/05/19 09:23:58;;;;;;;23.40;6.33;;;19.10;54.20;;;;;;6209096;23;20495;-85
2023/05/19 09:26:25;;;;;;;37.23;8.10;;;19.10;54.20;;;;;;6209554;23;20211;-85
2023/05/19 09:28:58;;;;;;;31.10;6.53;;;19.20;54.20;;;;;;6209592;23;20210;-89
2023/05/19 09:31:31;;;;;;;30.13;7.20;;;19.30;54.30;;;;;;6209397;23;20168;-88
2023/05/19 09:33:58;;;;;;;27.73;6.50;;;19.20;54.20;;;;;;6209310;23;20542;-88
2023/05/19 09:36:25;;;;;;;31.30;6.70;;;19.30;54.30;;;;;;6209200;23;20227;-88
2023/05/19 09:38:52;;;;;;;26.87;6.27;;;19.30;54.20;;;;;;6209760;23;20200;-85
2023/05/19 09:41:20;;;;;;;32.07;7.53;;;19.40;54.90;;;;;;6210499;23;20258;-87
2023/05/19 09:43:55;;;;;;;50.70;9.87;;;19.40;54.40;;;;;;6210039;23;20200;-88
2023/05/19 09:46:27;;;;;;;29.37;7.80;;;19.40;54.30;;;;;;6209056;23;20191;-88
2023/05/19 09:48:57;;;;;;;42.43;8.77;;;19.50;54.40;;;;;;6208339;23;20179;-85
2023/05/19 09:51:24;;;;;;;28.17;7.90;;;19.50;54.40;;;;;;6209692;23;20266;-85
2023/05/19 09:53:52;;;;;;;30.00;7.40;;;19.60;54.50;;;;;;6209356;23;20164;-84
2023/05/19 09:56:22;;;;;;;27.03;7.03;;;19.60;54.50;;;;;;6209512;23;20199;-84
2023/05/19 09:58:49;;;;;;;47.80;8.83;;;19.70;54.50;;;;;;6208360;23;20168;-85
2023/05/19 10:01:19;;;;;;;19.77;5.83;;;19.70;54.50;;;;;;6209672;23;20169;-84
2023/05/19 10:03:46;;;;;;;26.20;6.93;;;19.80;54.60;;;;;;6209223;23;20794;-84
2023/05/19 10:06:15;;;;;;;30.77;7.03;;;19.80;54.50;;;;;;6209563;23;20164;-85
2023/05/19 10:08:43;;;;;;;32.17;6.73;;;19.80;54.50;;;;;;6209199;23;20164;-90
2023/05/19 10:11:11;;;;;;;24.50;6.77;;;19.90;54.60;;;;;;6209054;23;20223;-86
2023/05/19 10:13:39;;;;;;;32.03;6.83;;;20.00;54.60;;;;;;6209235;23;20179;-87
2023/05/19 10:16:08;;;;;;;26.70;6.50;;;20.00;54.60;;;;;;6209551;23;20470;-88
2023/05/19 10:18:38;;;;;;;30.43;6.47;;;20.10;54.60;;;;;;6208423;23;20633;-85
2023/05/19 10:21:06;;;;;;;34.40;6.60;;;20.10;55.30;;;;;;6209098;23;20207;-85
2023/05/19 10:23:33;;;;;;;24.60;6.40;;;20.10;54.60;;;;;;6208904;23;20192;-85
2023/05/19 10:26:02;;;;;;;29.33;6.50;;;20.10;54.60;;;;;;6208744;23;20251;-85
2023/05/19 10:28:35;;;;;;;46.07;7.77;;;20.20;54.60;;;;;;6207746;23;20200;-87
2023/05/19 10:31:06;;;;;;;29.93;6.63;;;20.30;54.60;;;;;;6208305;23;20172;-91
2023/05/19 10:33:42;;;;;;;34.87;6.57;;;20.30;54.60;;;;;;6209175;23;20244;-85
2023/05/19 10:36:31;;;;;;;23.70;5.80;;;20.30;54.60;;;;;;6208240;23;20628;-91
2023/05/19 10:39:06;;;;;;;24.53;5.90;;;20.40;55.30;;;;;;6209175;23;20196;-85
2023/05/19 10:41:41;;;;;;;27.63;6.50;;;20.40;54.60;;;;;;6209857;23;20551;-85
2023/05/19 10:44:12;;;;;;;27.60;6.50;;;20.40;54.60;;;;;;6208109;23;20230;-85
2023/05/19 10:46:41;;;;;;;24.33;5.97;;;20.50;54.60;;;;;;6209126;23;20572;-92
2023/05/19 10:49:10;;;;;;;25.50;5.77;;;20.50;55.20;;;;;;6207937;23;20548;-88
2023/05/19 10:51:37;;;;;;;32.80;6.53;;;20.50;54.60;;;;;;6208185;23;20231;-87
2023/05/19 10:54:08;;;;;;;24.50;5.97;;;20.60;54.60;;;;;;6210557;23;20168;-88
2023/05/19 10:56:41;;;;;;;23.00;6.53;;;20.60;54.70;;;;;;6209259;23;20169;-87
2023/05/19 10:59:08;;;;;;;21.67;5.90;;;20.60;54.70;;;;;;6208931;23;20718;-86
2023/05/19 11:01:37;;;;;;;24.87;5.93;;;20.70;54.70;;;;;;6210737;23;20280;-86
2023/05/19 11:04:11;;;;;;;30.43;6.50;;;20.70;54.70;;;;;;6210329;23;20197;-85
2023/05/19 11:06:39;;;;;;;33.03;6.80;;;20.70;54.70;;;;;;6210682;23;20172;-85
2023/05/19 11:09:14;;;;;;;25.17;6.70;;;20.80;54.80;;;;;;6210371;23;20247;-86
2023/05/19 11:11:48;;;;;;;28.43;6.23;;;20.80;54.80;;;;;;6210794;23;20611;-85
2023/05/19 11:14:17;;;;;;;30.73;6.13;;;20.90;54.90;;;;;;6211370;23;20671;-86
2023/05/19 11:16:47;;;;;;;38.27;7.30;;;20.90;54.80;;;;;;6210193;23;20169;-88
2023/05/19 11:19:20;;;;;;;30.83;6.40;;;20.90;54.80;;;;;;6212567;23;20169;-86
2023/05/19 11:21:53;;;;;;;54.17;8.40;;;21.00;54.90;;;;;;6210203;23;20168;-85
2023/05/19 11:24:34;;;;;;;28.20;6.37;;;21.00;54.80;;;;;;6209809;23;20505;-86
2023/05/19 11:27:18;;;;;;;27.23;6.30;;;21.00;54.90;;;;;;6209912;23;20186;-86
2023/05/19 11:29:47;;;;;;;28.67;7.20;;;21.10;54.90;;;;;;6209277;23;20194;-85
2023/05/19 11:32:14;;;;;;;27.60;7.30;;;21.10;54.80;;;;;;6210919;23;20254;-85
2023/05/19 11:34:44;;;;;;;26.07;6.70;;;21.10;54.80;;;;;;6208555;23;20171;-85
2023/05/19 11:37:11;;;;;;;25.17;6.40;;;21.20;54.90;;;;;;6210242;23;20206;-86
2023/05/19 11:39:39;;;;;;;28.87;6.83;;;21.20;54.90;;;;;;6209857;23;20164;-85
2023/05/19 11:42:08;;;;;;;36.70;6.90;;;21.20;54.80;;;;;;6208929;23;20172;-86
2023/05/19 11:44:35;;;;;;;23.17;5.73;;;21.30;54.90;;;;;;6211065;23;20268;-85
2023/05/19 11:47:02;;;;;;;36.43;7.57;;;21.30;54.90;;;;;;6210546;23;20224;-85
2023/05/19 11:49:29;;;;;;;21.23;5.57;;;21.30;54.90;;;;;;6210978;23;20207;-86
2023/05/19 11:51:57;;;;;;;20.50;5.40;;;21.40;54.90;;;;;;6210764;23;20203;-85
2023/05/19 11:54:30;;;;;;;27.23;6.43;;;21.40;54.90;;;;;;6210116;23;20176;-86
2023/05/19 11:56:59;;;;;;;27.27;6.13;;;21.40;54.90;;;;;;6210249;23;20207;-85
2023/05/19 11:59:30;;;;;;;36.47;6.80;;;21.50;54.90;;;;;;6209976;23;20211;-85
2023/05/19 12:01:58;;;;;;;26.83;6.30;;;21.50;54.90;;;;;;6210350;23;20174;-86
2023/05/19 12:04:25;;;;;;;30.47;6.30;;;21.50;54.90;;;;;;6210167;23;20687;-85
2023/05/19 12:06:53;;;;;;;51.53;8.23;;;21.60;55.00;;;;;;6209230;23;20168;-88
2023/05/19 12:09:22;;;;;;;35.73;7.97;;;21.50;54.90;;;;;;6212621;23;20172;-86
2023/05/19 12:11:50;;;;;;;34.23;7.23;;;21.70;55.10;;;;;;6210171;23;20175;-85
2023/05/19 12:14:17;;;;;;;29.03;6.87;;;21.70;55.10;;;;;;6209862;23;20637;-85
2023/05/19 12:16:44;;;;;;;26.47;7.37;;;21.70;55.10;;;;;;6210593;23;20195;-89
2023/05/19 12:19:11;;;;;;;24.40;6.40;;;21.80;55.20;;;;;;6210930;23;20206;-88
2023/05/19 12:21:38;;;;;;;20.57;6.23;;;21.80;55.10;;;;;;6209992;23;20199;-87
2023/05/19 12:24:06;;;;;;;30.97;6.63;;;21.90;55.20;;;;;;6209802;23;20276;-87
2023/05/19 12:26:35;;;;;;;26.90;6.13;;;21.90;55.20;;;;;;6209848;23;20705;-85
2023/05/19 12:29:05;;;;;;;27.03;6.33;;;22.00;55.20;;;;;;6210489;23;20175;-85
2023/05/19 12:31:36;;;;;;;26.40;6.27;;;22.00;55.10;;;;;;6210535;23;20239;-85
2023/05/19 12:34:03;;;;;;;33.17;6.90;;;22.00;55.00;;;;;;6209759;23;20691;-86
2023/05/19 12:36:32;;;;;;;31.47;6.63;;;22.10;55.20;;;;;;6210342;23;20183;-86
2023/05/19 12:38:59;;;;;;;23.13;5.90;;;22.10;55.10;;;;;;6208900;23;20192;-85
2023/05/19 12:41:27;;;;;;;31.80;6.50;;;22.10;55.10;;;;;;6209252;23;20617;-88
2023/05/19 12:43:56;;;;;;;32.83;7.97;;;22.20;55.20;;;;;;6213894;23;20199;-84